Time;durP1;ratioP1;P1;durP2;ratioP2;P2;SDS_P1;SDS_P2;PMS_P1;PMS_P2;Temp;Humidity;BMP_temperature;BMP_pressure;BME280_temperature;BME280_humidity;BME280_pressure;Samples;Min_cycle;Max_cycle;Signal;HPM_P1;HPM_P2
2024/02/07 00:01:16;;;;;;;26.35;24.15;;;;;;;;;;5030570;28;20029;-59
2024/02/07 00:03:43;;;;;;;30.90;28.50;;;;;;;;;;5029610;28;20030;-57
2024/02/07 00:06:11;;;;;;;29.48;26.85;;;;;;;;;;5030910;28;20030;-60
2024/02/07 00:08:37;;;;;;;29.92;26.83;;;;;;;;;;5029852;28;20372;-58
2024/02/07 00:11:03;;;;;;;29.02;26.33;;;;;;;;;;5030651;28;20040;-55
2024/02/07 00:13:29;;;;;;;27.33;25.02;;;;;;;;;;5030936;28;20068;-56
2024/02/07 00:15:55;;;;;;;26.75;24.40;;;;;;;;;;5030460;28;20510;-59
2024/02/07 00:18:21;;;;;;;25.08;22.98;;;;;;;;;;5030391;28;20057;-61
2024/02/07 00:20:47;;;;;;;26.00;23.85;;;;;;;;;;5030169;28;20076;-58
2024/02/07 00:23:13;;;;;;;25.85;23.65;;;;;;;;;;5028903;28;20508;-60
2024/02/07 00:25:39;;;;;;;25.50;23.17;;;;;;;;;;4678262;28;9999780;-60
2024/02/07 00:28:07;;;;;;;25.92;23.63;;;;;;;;;;5030218;28;20025;-59
2024/02/07 00:30:33;;;;;;;27.33;25.23;;;;;;;;;;5030236;28;20025;-56
2024/02/07 00:32:59;;;;;;;27.10;25.00;;;;;;;;;;5028801;28;20037;-61
2024/02/07 00:35:25;;;;;;;26.83;24.73;;;;;;;;;;5028691;28;20028;-57
2024/02/07 00:37:50;;;;;;;26.55;24.45;;;;;;;;;;5022882;28;20029;-60
2024/02/07 00:40:16;;;;;;;26.90;24.80;;;;;;;;;;5028461;28;20029;-57
2024/02/07 00:42:42;;;;;;;26.92;24.83;;;;;;;;;;5020355;28;20061;-59
2024/02/07 00:45:08;;;;;;;26.90;24.80;;;;;;;;;;5029083;28;20032;-58
2024/02/07 00:47:34;;;;;;;26.60;24.50;;;;;;;;;;5030023;28;20431;-60
2024/02/07 00:50:00;;;;;;;25.70;23.70;;;;;;;;;;5030581;28;20083;-59
2024/02/07 00:52:27;;;;;;;25.17;23.17;;;;;;;;;;5030051;28;20034;-59
2024/02/07 00:54:53;;;;;;;24.42;22.42;;;;;;;;;;5030413;28;20043;-59
2024/02/07 00:57:19;;;;;;;24.60;22.60;;;;;;;;;;5030554;28;20471;-60
2024/02/07 00:59:45;;;;;;;23.95;21.95;;;;;;;;;;5022159;28;20025;-59
2024/02/07 01:02:11;;;;;;;24.27;22.27;;;;;;;;;;5029830;28;20079;-58
2024/02/07 01:04:37;;;;;;;24.23;22.23;;;;;;;;;;5030381;28;20025;-58
2024/02/07 01:07:03;;;;;;;23.65;21.65;;;;;;;;;;5030245;28;20029;-59
2024/02/07 01:09:29;;;;;;;23.80;21.80;;;;;;;;;;5030525;28;20034;-58
2024/02/07 01:11:55;;;;;;;23.67;21.67;;;;;;;;;;5026285;28;20492;-61
2024/02/07 01:14:21;;;;;;;23.58;21.58;;;;;;;;;;5026065;28;20029;-59
2024/02/07 01:16:48;;;;;;;23.67;21.67;;;;;;;;;;5029490;28;20033;-59
2024/02/07 01:19:13;;;;;;;23.48;21.48;;;;;;;;;;5023735;28;20400;-57
2024/02/07 01:21:40;;;;;;;23.67;21.67;;;;;;;;;;5027331;28;20032;-58
2024/02/07 01:24:08;;;;;;;23.90;21.90;;;;;;;;;;5030234;28;20017;-59
2024/02/07 01:26:35;;;;;;;23.50;21.50;;;;;;;;;;5030189;28;20033;-59
2024/02/07 01:29:02;;;;;;;23.60;21.60;;;;;;;;;;5025912;28;20060;-58
2024/02/07 01:31:28;;;;;;;22.55;20.65;;;;;;;;;;5030004;28;20029;-53
2024/02/07 01:33:55;;;;;;;22.70;20.80;;;;;;;;;;5061976;28;20496;-60
2024/02/07 01:36:22;;;;;;;23.40;21.40;;;;;;;;;;5030059;28;20029;-58
2024/02/07 01:38:48;;;;;;;22.52;20.63;;;;;;;;;;5062155;28;20028;-59
2024/02/07 01:41:15;;;;;;;25.70;23.70;;;;;;;;;;5029805;28;20368;-57
2024/02/07 01:43:42;;;;;;;23.73;21.73;;;;;;;;;;5029703;28;20029;-59
2024/02/07 01:46:08;;;;;;;23.80;21.80;;;;;;;;;;5029738;28;20057;-59
2024/02/07 01:48:34;;;;;;;23.60;21.60;;;;;;;;;;5029731;28;20053;-60
2024/02/07 01:51:02;;;;;;;23.38;21.38;;;;;;;;;;5029819;28;20029;-59
2024/02/07 01:53:29;;;;;;;23.65;21.65;;;;;;;;;;5029636;28;20387;-57
2024/02/07 01:55:57;;;;;;;22.48;20.58;;;;;;;;;;5028331;28;20120;-59
2024/02/07 01:58:24;;;;;;;21.88;19.98;;;;;;;;;;5028430;28;20030;-59
2024/02/07 02:00:51;;;;;;;20.65;18.85;;;;;;;;;;5030015;28;20025;-60
2024/02/07 02:03:17;;;;;;;20.60;18.80;;;;;;;;;;5029241;28;20029;-60
2024/02/07 02:05:43;;;;;;;20.67;18.88;;;;;;;;;;5029940;28;20043;-60
2024/02/07 02:08:09;;;;;;;20.38;18.58;;;;;;;;;;5028953;28;20395;-60
2024/02/07 02:10:35;;;;;;;20.40;18.60;;;;;;;;;;5029498;28;20057;-61
2024/02/07 02:13:02;;;;;;;19.77;17.98;;;;;;;;;;5029097;28;20033;-55
2024/02/07 02:15:28;;;;;;;20.20;18.40;;;;;;;;;;5029522;28;20021;-58
2024/02/07 02:17:54;;;;;;;19.75;17.95;;;;;;;;;;5029587;28;20025;-58
2024/02/07 02:20:21;;;;;;;19.80;18.00;;;;;;;;;;5029497;28;20152;-59
2024/02/07 02:22:56;;;;;;;19.35;17.55;;;;;;;;;;5028729;28;20053;-58
2024/02/07 02:25:25;;;;;;;20.42;18.63;;;;;;;;;;5029493;28;20118;-58
2024/02/07 02:28:02;;;;;;;21.63;19.73;;;;;;;;;;5031296;28;20026;-59
2024/02/07 02:30:40;;;;;;;21.63;19.73;;;;;;;;;;5033240;28;20025;-60
2024/02/07 02:33:10;;;;;;;22.10;20.20;;;;;;;;;;5032740;28;20110;-57
2024/02/07 02:35:37;;;;;;;22.13;20.23;;;;;;;;;;5032951;28;20032;-59
2024/02/07 02:38:03;;;;;;;21.98;20.08;;;;;;;;;;5033020;28;20017;-56
2024/02/07 02:40:31;;;;;;;20.88;18.98;;;;;;;;;;5033050;28;20104;-59
2024/02/07 02:42:58;;;;;;;20.20;18.40;;;;;;;;;;5032911;28;20067;-60
2024/02/07 02:45:24;;;;;;;20.48;18.67;;;;;;;;;;5032958;28;20029;-59
2024/02/07 02:47:50;;;;;;;20.80;18.90;;;;;;;;;;5032805;28;20033;-59
2024/02/07 02:50:17;;;;;;;19.80;18.00;;;;;;;;;;5032833;28;20072;-58
2024/02/07 02:52:43;;;;;;;20.35;18.55;;;;;;;;;;5031499;28;20048;-59
2024/02/07 02:55:11;;;;;;;20.33;18.52;;;;;;;;;;5032669;28;20507;-59
2024/02/07 02:57:38;;;;;;;20.67;18.77;;;;;;;;;;5033005;28;20602;-60
2024/02/07 03:00:06;;;;;;;21.55;19.65;;;;;;;;;;5031522;28;20030;-56
2024/02/07 03:02:33;;;;;;;21.50;19.60;;;;;;;;;;5032276;28;20017;-60
2024/02/07 03:05:01;;;;;;;21.10;19.20;;;;;;;;;;5032295;28;20017;-59
2024/02/07 03:07:36;;;;;;;22.13;20.23;;;;;;;;;;5032849;28;20438;-58
2024/02/07 03:10:04;;;;;;;22.00;20.10;;;;;;;;;;5032741;28;20029;-58
2024/02/07 03:12:31;;;;;;;21.40;19.50;;;;;;;;;;5032072;28;20017;-59
2024/02/07 03:14:57;;;;;;;20.85;18.95;;;;;;;;;;5032681;28;20399;-59
2024/02/07 03:17:23;;;;;;;21.05;19.15;;;;;;;;;;5033336;28;20084;-58
2024/02/07 03:19:49;;;;;;;21.70;19.80;;;;;;;;;;5032550;28;20030;-58
2024/02/07 03:22:15;;;;;;;21.10;19.20;;;;;;;;;;5032189;28;20095;-58
2024/02/07 03:24:41;;;;;;;20.45;18.58;;;;;;;;;;5032170;28;20026;-58
2024/02/07 03:27:08;;;;;;;20.40;18.50;;;;;;;;;;5030901;28;20032;-57
2024/02/07 03:29:34;;;;;;;20.27;18.42;;;;;;;;;;5032013;28;20032;-59
2024/02/07 03:32:00;;;;;;;20.85;18.95;;;;;;;;;;5031782;28;20029;-58
2024/02/07 03:34:26;;;;;;;22.23;20.33;;;;;;;;;;5032164;28;20033;-59
2024/02/07 03:36:52;;;;;;;21.00;19.10;;;;;;;;;;5031877;28;20036;-58
2024/02/07 03:39:22;;;;;;;21.50;19.60;;;;;;;;;;5031364;28;20029;-58
2024/02/07 03:41:48;;;;;;;21.63;19.73;;;;;;;;;;5031515;28;20124;-60
2024/02/07 03:44:13;;;;;;;23.00;21.00;;;;;;;;;;5031716;28;20049;-58
2024/02/07 03:46:43;;;;;;;22.30;20.40;;;;;;;;;;5031831;28;20052;-59
2024/02/07 03:49:09;;;;;;;21.77;19.88;;;;;;;;;;5031700;28;20103;-60
2024/02/07 03:51:35;;;;;;;22.73;20.83;;;;;;;;;;5030855;28;20030;-59
2024/02/07 03:54:04;;;;;;;22.10;20.20;;;;;;;;;;5031634;28;20072;-56
2024/02/07 03:56:30;;;;;;;23.05;21.05;;;;;;;;;;5031596;28;20044;-58
2024/02/07 03:58:57;;;;;;;22.83;20.92;;;;;;;;;;5031633;28;20087;-58
2024/02/07 04:01:24;;;;;;;23.20;21.20;;;;;;;;;;5030150;28;20026;-59
2024/02/07 04:03:50;;;;;;;22.48;20.58;;;;;;;;;;5031209;28;20049;-58
2024/02/07 04:06:16;;;;;;;21.73;19.83;;;;;;;;;;5031470;28;20111;-58
2024/02/07 04:08:43;;;;;;;22.13;20.23;;;;;;;;;;5030090;28;20029;-57
2024/02/07 05:16:28;;;;;;;27.95;25.75;;;;;;;;;;5030054;28;20072;-56
2024/02/07 05:18:55;;;;;;;26.95;24.75;;;;;;;;;;5029943;28;20091;-58
2024/02/07 05:21:21;;;;;;;28.98;26.67;;;;;;;;;;5029782;28;20553;-59
2024/02/07 05:23:48;;;;;;;28.45;26.23;;;;;;;;;;5030131;28;20025;-57
2024/02/07 05:26:17;;;;;;;28.00;25.80;;;;;;;;;;5029894;28;20442;-59
2024/02/07 05:28:44;;;;;;;27.27;25.08;;;;;;;;;;5029954;28;20061;-58
2024/02/07 05:31:10;;;;;;;28.38;26.08;;;;;;;;;;5029341;28;20033;-55
2024/02/07 05:33:36;;;;;;;27.48;25.27;;;;;;;;;;5029884;28;20048;-56
2024/02/07 05:36:03;;;;;;;27.02;24.83;;;;;;;;;;5028892;28;20045;-59
2024/02/07 05:38:28;;;;;;;26.52;24.33;;;;;;;;;;5024804;28;20021;-57
2024/02/07 05:40:54;;;;;;;27.08;24.88;;;;;;;;;;5029471;28;20022;-59
2024/02/07 05:43:20;;;;;;;25.77;23.67;;;;;;;;;;5031541;28;20021;-56
2024/02/07 05:45:46;;;;;;;25.70;23.60;;;;;;;;;;5030500;28;20548;-59
2024/02/07 05:48:12;;;;;;;25.13;23.02;;;;;;;;;;5024723;28;20033;-58
2024/02/07 05:50:38;;;;;;;24.75;22.65;;;;;;;;;;5019711;28;20034;-58
2024/02/07 05:53:04;;;;;;;25.02;22.92;;;;;;;;;;5028962;28;20407;-57
2024/02/07 05:55:30;;;;;;;25.20;23.10;;;;;;;;;;5030107;28;20026;-58
2024/02/07 05:57:56;;;;;;;26.20;24.10;;;;;;;;;;5030467;28;20026;-59
2024/02/07 06:00:22;;;;;;;25.92;23.83;;;;;;;;;;5029783;28;20052;-58
2024/02/07 06:02:49;;;;;;;26.25;24.05;;;;;;;;;;5029322;28;20044;-58
2024/02/07 06:05:15;;;;;;;26.48;24.27;;;;;;;;;;5029233;28;20035;-57
2024/02/07 06:07:41;;;;;;;26.35;24.17;;;;;;;;;;5029420;28;20035;-58
2024/02/07 06:10:07;;;;;;;25.73;23.63;;;;;;;;;;5029816;28;20083;-59
2024/02/07 06:12:33;;;;;;;25.73;23.63;;;;;;;;;;5060918;28;20151;-59
2024/02/07 06:14:59;;;;;;;25.65;23.55;;;;;;;;;;5029254;28;20080;-58
2024/02/07 06:17:29;;;;;;;26.05;23.95;;;;;;;;;;5029510;28;20021;-56
2024/02/07 06:19:55;;;;;;;25.33;23.23;;;;;;;;;;5029041;28;20456;-57
2024/02/07 06:22:21;;;;;;;25.60;23.50;;;;;;;;;;5027669;28;20033;-60
2024/02/07 06:24:47;;;;;;;25.45;23.35;;;;;;;;;;5029401;28;20018;-59
2024/02/07 06:27:13;;;;;;;25.27;23.17;;;;;;;;;;5029453;28;20045;-60
2024/02/07 06:29:39;;;;;;;25.35;23.25;;;;;;;;;;5029989;28;20071;-59
2024/02/07 06:32:05;;;;;;;24.45;22.35;;;;;;;;;;5028842;28;20033;-61
2024/02/07 06:34:31;;;;;;;24.35;22.35;;;;;;;;;;5029294;28;20022;-57
2024/02/07 06:36:57;;;;;;;24.27;22.27;;;;;;;;;;5026452;28;20498;-61
2024/02/07 06:39:24;;;;;;;24.27;22.27;;;;;;;;;;5025116;28;20484;-59
2024/02/07 06:41:50;;;;;;;24.17;22.17;;;;;;;;;;5028324;28;20369;-58
2024/02/07 06:44:16;;;;;;;23.98;21.98;;;;;;;;;;5028930;28;20452;-60
2024/02/07 06:46:42;;;;;;;23.88;21.88;;;;;;;;;;5028903;28;20120;-58
2024/02/07 06:49:08;;;;;;;23.45;21.45;;;;;;;;;;5028950;28;20049;-57
2024/02/07 06:51:34;;;;;;;22.88;20.88;;;;;;;;;;5028195;28;20460;-56
2024/02/07 06:54:00;;;;;;;22.85;20.85;;;;;;;;;;5028543;28;20060;-58
2024/02/07 06:56:26;;;;;;;22.83;20.83;;;;;;;;;;5020746;28;20066;-58
2024/02/07 06:58:52;;;;;;;22.85;20.85;;;;;;;;;;5028642;28;20018;-59
2024/02/07 07:01:18;;;;;;;22.55;20.55;;;;;;;;;;5029071;28;20526;-56
2024/02/07 07:03:46;;;;;;;21.90;20.00;;;;;;;;;;5028943;28;20048;-51
2024/02/07 07:06:12;;;;;;;22.23;20.33;;;;;;;;;;5028990;28;20068;-60
2024/02/07 07:08:38;;;;;;;21.25;19.35;;;;;;;;;;5028864;28;20389;-59
2024/02/07 07:11:05;;;;;;;21.38;19.48;;;;;;;;;;5020874;28;20082;-55
2024/02/07 07:13:31;;;;;;;21.55;19.65;;;;;;;;;;5029987;28;20048;-60
2024/02/07 07:15:57;;;;;;;21.25;19.35;;;;;;;;;;5027986;28;20416;-57
2024/02/07 07:18:23;;;;;;;21.00;19.10;;;;;;;;;;5027316;28;20090;-55
2024/02/07 07:20:49;;;;;;;21.05;19.15;;;;;;;;;;5031702;28;20140;-57
2024/02/07 07:23:15;;;;;;;21.15;19.25;;;;;;;;;;5032182;28;20059;-54
2024/02/07 07:25:41;;;;;;;20.83;18.92;;;;;;;;;;5032012;28;20467;-59
2024/02/07 07:28:07;;;;;;;21.08;19.17;;;;;;;;;;5032362;28;20112;-57
2024/02/07 07:30:33;;;;;;;20.77;18.88;;;;;;;;;;5030592;28;20048;-59
2024/02/07 07:33:00;;;;;;;20.60;18.70;;;;;;;;;;5031897;28;20029;-58
2024/02/07 07:35:26;;;;;;;20.38;18.55;;;;;;;;;;5032148;28;20053;-54
2024/02/07 07:37:52;;;;;;;20.40;18.50;;;;;;;;;;5032139;28;20045;-57
2024/02/07 07:40:19;;;;;;;19.58;17.77;;;;;;;;;;5031680;28;20051;-57
2024/02/07 07:42:45;;;;;;;20.02;18.15;;;;;;;;;;5031331;28;20106;-56
2024/02/07 07:45:11;;;;;;;19.60;17.80;;;;;;;;;;5032077;28;20653;-57
2024/02/07 07:47:39;;;;;;;19.75;17.95;;;;;;;;;;5030754;28;20065;-56
2024/02/07 07:50:07;;;;;;;20.10;18.20;;;;;;;;;;5031849;28;20028;-58
2024/02/07 07:52:33;;;;;;;19.73;17.92;;;;;;;;;;5031196;28;20100;-54
2024/02/07 07:54:59;;;;;;;20.08;18.27;;;;;;;;;;5031593;28;20040;-56
2024/02/07 07:57:25;;;;;;;19.50;17.70;;;;;;;;;;5031463;28;20403;-60
2024/02/07 07:59:51;;;;;;;19.55;17.75;;;;;;;;;;5031295;28;20036;-60
2024/02/07 08:02:20;;;;;;;19.58;17.77;;;;;;;;;;5030789;28;20075;-55
2024/02/07 08:04:46;;;;;;;19.65;17.85;;;;;;;;;;5031475;28;20040;-56
2024/02/07 08:07:12;;;;;;;19.67;17.88;;;;;;;;;;5031574;28;20021;-53
2024/02/07 08:09:38;;;;;;;19.52;17.73;;;;;;;;;;5031680;28;20443;-59
2024/02/07 08:12:04;;;;;;;19.40;17.60;;;;;;;;;;5029977;28;20022;-58
2024/02/07 08:14:30;;;;;;;19.38;17.58;;;;;;;;;;5031584;28;20057;-56
2024/02/07 08:16:56;;;;;;;19.20;17.40;;;;;;;;;;5031341;28;20049;-58
2024/02/07 08:19:23;;;;;;;18.98;17.17;;;;;;;;;;5030061;28;20394;-64
2024/02/07 08:21:49;;;;;;;19.20;17.40;;;;;;;;;;5030805;28;20051;-55
2024/02/07 08:24:15;;;;;;;19.20;17.40;;;;;;;;;;5030468;28;20033;-58
2024/02/07 08:26:41;;;;;;;19.35;17.55;;;;;;;;;;5028530;28;20087;-55
2024/02/07 08:29:07;;;;;;;19.33;17.52;;;;;;;;;;5030454;28;20033;-56
2024/02/07 08:31:33;;;;;;;19.27;17.48;;;;;;;;;;5030627;28;20403;-58
2024/02/07 08:33:59;;;;;;;18.83;17.02;;;;;;;;;;5030584;28;20035;-57
2024/02/07 08:36:25;;;;;;;19.10;17.30;;;;;;;;;;5030936;28;20029;-57
2024/02/07 08:38:51;;;;;;;18.83;17.02;;;;;;;;;;5031071;28;20025;-55
2024/02/07 08:41:18;;;;;;;18.85;17.05;;;;;;;;;;5030400;28;20498;-60
2024/02/07 08:43:45;;;;;;;19.03;17.23;;;;;;;;;;5029808;28;20480;-59
2024/02/07 08:46:11;;;;;;;18.50;16.70;;;;;;;;;;5030442;28;20022;-57
2024/02/07 08:48:37;;;;;;;18.35;16.55;;;;;;;;;;5030439;28;20030;-57
2024/02/07 08:51:03;;;;;;;18.38;16.58;;;;;;;;;;5030512;28;20037;-56
2024/02/07 08:53:29;;;;;;;18.08;16.27;;;;;;;;;;5030049;28;20033;-55
2024/02/07 08:55:57;;;;;;;17.15;15.45;;;;;;;;;;5030397;28;20617;-54
2024/02/07 08:58:23;;;;;;;18.08;16.25;;;;;;;;;;5030133;28;20148;-55
2024/02/07 09:00:52;;;;;;;16.88;15.07;;;;;;;;;;5029978;28;20044;-52
2024/02/07 09:03:18;;;;;;;15.55;13.85;;;;;;;;;;5028797;28;20514;-50
2024/02/07 09:05:44;;;;;;;16.90;15.10;;;;;;;;;;5030337;28;20116;-50
2024/02/07 09:08:10;;;;;;;15.23;13.30;;;;;;;;;;5030675;28;20064;-52
2024/02/07 09:10:36;;;;;;;15.30;13.30;;;;;;;;;;5030778;28;20456;-51
2024/02/07 09:13:02;;;;;;;15.00;12.82;;;;;;;;;;5030147;28;20088;-52
2024/02/07 09:15:28;;;;;;;14.90;12.48;;;;;;;;;;5030010;28;20041;-49
2024/02/07 09:17:54;;;;;;;14.90;12.50;;;;;;;;;;5029860;28;20419;-51
2024/02/07 09:20:20;;;;;;;14.90;12.55;;;;;;;;;;5029730;28;20032;-50
2024/02/07 09:22:46;;;;;;;14.77;11.85;;;;;;;;;;5029609;28;20060;-52
2024/02/07 09:25:12;;;;;;;14.70;11.63;;;;;;;;;;5029511;28;20021;-51
2024/02/07 09:27:40;;;;;;;14.90;12.00;;;;;;;;;;5030286;28;20482;-54
2024/02/07 09:30:07;;;;;;;14.38;10.60;;;;;;;;;;5030415;28;20018;-50
2024/02/07 09:32:33;;;;;;;14.60;11.50;;;;;;;;;;5029655;28;20482;-51
2024/02/07 09:35:02;;;;;;;14.40;10.85;;;;;;;;;;5030073;28;20045;-53
2024/02/07 09:37:28;;;;;;;15.05;11.43;;;;;;;;;;5029881;28;20387;-52
2024/02/07 09:39:54;;;;;;;14.93;10.30;;;;;;;;;;5029635;28;20100;-53
2024/02/07 09:42:22;;;;;;;14.05;9.95;;;;;;;;;;5028551;28;20248;-53
2024/02/07 09:44:50;;;;;;;14.40;10.60;;;;;;;;;;5030403;28;20399;-55
2024/02/07 09:47:19;;;;;;;18.52;11.65;;;;;;;;;;5029070;28;20175;-54
2024/02/07 09:49:45;;;;;;;14.30;10.57;;;;;;;;;;5028847;28;20017;-55
2024/02/07 09:52:13;;;;;;;14.52;10.20;;;;;;;;;;5028841;28;20113;-56
2024/02/07 09:54:39;;;;;;;14.13;10.10;;;;;;;;;;5029276;28;20029;-50
2024/02/07 09:57:05;;;;;;;14.00;9.65;;;;;;;;;;5029376;28;20064;-56
2024/02/07 09:59:32;;;;;;;13.95;9.70;;;;;;;;;;5029885;28;20125;-54
2024/02/07 10:01:59;;;;;;;14.00;9.80;;;;;;;;;;5028846;28;20029;-55
2024/02/07 10:04:31;;;;;;;13.95;9.80;;;;;;;;;;5028425;28;20136;-54
2024/02/07 10:06:57;;;;;;;13.85;9.57;;;;;;;;;;5029534;28;20049;-54
2024/02/07 10:09:23;;;;;;;13.80;9.27;;;;;;;;;;5029543;28;20078;-54
2024/02/07 10:11:49;;;;;;;13.88;9.40;;;;;;;;;;5029109;28;20034;-53
2024/02/07 10:14:15;;;;;;;13.90;9.50;;;;;;;;;;5028756;28;20040;-51
2024/02/07 10:16:41;;;;;;;14.30;10.27;;;;;;;;;;5029223;28;20017;-52
2024/02/07 10:19:07;;;;;;;14.07;10.07;;;;;;;;;;5029506;28;20029;-52
2024/02/07 10:21:37;;;;;;;14.10;10.05;;;;;;;;;;5027396;28;20025;-52
2024/02/07 10:24:06;;;;;;;14.68;10.25;;;;;;;;;;5028107;28;20167;-53
2024/02/07 10:26:32;;;;;;;14.00;9.90;;;;;;;;;;5029137;28;20425;-47
2024/02/07 10:29:02;;;;;;;14.13;10.10;;;;;;;;;;5029434;28;20287;-55
2024/02/07 10:31:28;;;;;;;14.10;10.00;;;;;;;;;;5028870;28;20025;-53
2024/02/07 10:33:57;;;;;;;14.20;10.20;;;;;;;;;;5028022;28;20017;-56
2024/02/07 10:36:24;;;;;;;14.30;10.50;;;;;;;;;;5028957;28;20079;-54
2024/02/07 10:38:51;;;;;;;13.98;9.80;;;;;;;;;;5029169;28;20079;-52
2024/02/07 10:41:17;;;;;;;14.57;10.50;;;;;;;;;;5029233;28;20434;-54
2024/02/07 10:43:43;;;;;;;14.50;10.70;;;;;;;;;;5029598;28;20079;-50
2024/02/07 10:46:14;;;;;;;14.10;10.18;;;;;;;;;;5029611;28;20169;-55
2024/02/07 10:48:40;;;;;;;14.13;10.18;;;;;;;;;;5031255;28;20108;-51
2024/02/07 10:51:06;;;;;;;14.32;10.80;;;;;;;;;;5032959;28;20435;-52
2024/02/07 10:53:33;;;;;;;14.00;9.80;;;;;;;;;;5033102;28;20055;-49
2024/02/07 10:55:59;;;;;;;13.85;9.40;;;;;;;;;;5033025;28;20201;-53
2024/02/07 10:58:27;;;;;;;13.73;9.07;;;;;;;;;;5032972;28;20029;-54
2024/02/07 11:00:53;;;;;;;13.82;9.23;;;;;;;;;;5032113;28;20022;-54
2024/02/07 11:03:23;;;;;;;21.60;13.60;;;;;;;;;;5032574;28;20550;-55
2024/02/07 11:05:49;;;;;;;13.88;9.40;;;;;;;;;;5033023;28;20403;-53
2024/02/07 11:08:15;;;;;;;13.77;9.27;;;;;;;;;;5032371;28;20069;-51
2024/02/07 11:10:42;;;;;;;14.10;9.40;;;;;;;;;;5032465;28;20022;-54
2024/02/07 11:13:11;;;;;;;13.65;8.88;;;;;;;;;;5032395;28;20163;-54
2024/02/07 11:15:37;;;;;;;14.10;9.30;;;;;;;;;;5031311;28;20026;-54
2024/02/07 11:18:04;;;;;;;14.35;10.15;;;;;;;;;;5032259;28;20585;-56
2024/02/07 11:20:30;;;;;;;13.65;8.93;;;;;;;;;;5032445;28;20025;-56
2024/02/07 11:22:58;;;;;;;13.95;9.95;;;;;;;;;;5032188;28;20154;-54
2024/02/07 11:25:24;;;;;;;14.93;9.57;;;;;;;;;;5032372;28;20069;-52
2024/02/07 11:27:51;;;;;;;13.90;9.40;;;;;;;;;;5030328;28;20377;-58
2024/02/07 11:30:18;;;;;;;13.70;9.00;;;;;;;;;;5032445;28;20060;-54
2024/02/07 11:32:48;;;;;;;14.20;10.25;;;;;;;;;;5032715;28;20037;-57
2024/02/07 11:35:14;;;;;;;15.65;10.25;;;;;;;;;;5032435;28;20029;-56
2024/02/07 11:37:40;;;;;;;13.68;9.00;;;;;;;;;;5033097;28;20033;-53
2024/02/07 11:40:07;;;;;;;13.45;8.30;;;;;;;;;;5032096;28;20257;-53
2024/02/07 11:42:37;;;;;;;13.98;9.00;;;;;;;;;;5046776;28;20483;-52
2024/02/07 11:45:04;;;;;;;13.48;8.20;;;;;;;;;;5046297;28;20060;-53
2024/02/07 11:47:32;;;;;;;13.40;8.20;;;;;;;;;;5031148;28;20491;-51
2024/02/07 11:49:58;;;;;;;;;;;;;;;;;;5031560;28;20164;-53
2024/02/07 11:52:25;;;;;;;12.50;7.30;;;;;;;;;;5030608;28;20509;-52
2024/02/07 11:54:51;;;;;;;12.85;7.50;;;;;;;;;;5030742;28;20033;-57
2024/02/07 11:57:17;;;;;;;12.80;7.47;;;;;;;;;;5030614;28;20025;-51
2024/02/07 11:59:43;;;;;;;13.45;8.20;;;;;;;;;;5030075;28;20423;-54
2024/02/07 12:02:09;;;;;;;14.13;8.73;;;;;;;;;;5029810;28;20041;-53
2024/02/07 12:04:39;;;;;;;13.40;8.20;;;;;;;;;;5030515;28;20103;-55
2024/02/07 12:07:05;;;;;;;13.25;7.82;;;;;;;;;;5030631;28;20025;-57
2024/02/07 12:09:32;;;;;;;13.38;7.90;;;;;;;;;;5030695;28;20030;-54
2024/02/07 12:12:01;;;;;;;13.40;8.10;;;;;;;;;;5030557;28;20109;-55
2024/02/07 12:14:27;;;;;;;12.50;7.30;;;;;;;;;;5030407;28;20104;-54
2024/02/07 12:16:53;;;;;;;12.48;7.55;;;;;;;;;;5030138;28;20049;-52
2024/02/07 12:19:20;;;;;;;10.60;6.30;;;;;;;;;;5030018;28;20159;-57
2024/02/07 12:21:46;;;;;;;10.60;6.20;;;;;;;;;;5029735;28;20026;-57
2024/02/07 12:24:14;;;;;;;10.20;5.95;;;;;;;;;;5031795;28;20129;-58
2024/02/07 12:26:40;;;;;;;10.77;6.38;;;;;;;;;;5030496;28;20056;-57
2024/02/07 12:29:06;;;;;;;10.40;6.10;;;;;;;;;;5030570;28;20608;-56
2024/02/07 12:31:32;;;;;;;10.10;6.10;;;;;;;;;;5028647;28;20025;-56
2024/02/07 12:33:58;;;;;;;9.38;5.53;;;;;;;;;;5030476;28;20136;-50
2024/02/07 12:36:24;;;;;;;9.63;5.68;;;;;;;;;;5029647;28;20104;-68
2024/02/07 12:38:50;;;;;;;9.43;5.53;;;;;;;;;;5030109;28;20051;-54
2024/02/07 12:41:16;;;;;;;10.70;6.30;;;;;;;;;;5029697;28;20423;-55
2024/02/07 12:43:43;;;;;;;9.75;5.78;;;;;;;;;;5028112;28;20018;-57
2024/02/07 12:46:10;;;;;;;9.10;5.40;;;;;;;;;;5029954;28;20032;-56
2024/02/07 12:48:36;;;;;;;10.13;5.97;;;;;;;;;;5029310;28;20036;-56
2024/02/07 12:51:02;;;;;;;10.20;6.55;;;;;;;;;;5025026;28;20065;-56
2024/02/07 12:53:28;;;;;;;13.40;7.10;;;;;;;;;;5029325;28;20117;-52
2024/02/07 12:55:54;;;;;;;10.13;5.95;;;;;;;;;;5029284;28;20450;-54
2024/02/07 12:58:20;;;;;;;9.80;5.80;;;;;;;;;;5029578;28;20083;-52
2024/02/07 13:00:46;;;;;;;9.90;5.80;;;;;;;;;;5035381;28;20028;-57
2024/02/07 13:03:13;;;;;;;10.10;6.00;;;;;;;;;;5037797;28;20022;-50
2024/02/07 13:05:39;;;;;;;10.27;6.03;;;;;;;;;;5027998;28;20404;-55
2024/02/07 13:08:09;;;;;;;11.55;6.72;;;;;;;;;;5026728;28;20025;-53
2024/02/07 13:10:37;;;;;;;12.13;7.00;;;;;;;;;;5026862;28;20087;-57
2024/02/07 13:13:04;;;;;;;14.52;7.47;;;;;;;;;;5027488;28;20025;-55
2024/02/07 13:15:30;;;;;;;11.35;6.60;;;;;;;;;;5027409;28;20026;-53
2024/02/07 13:17:56;;;;;;;11.25;6.60;;;;;;;;;;5027758;28;20052;-52
2024/02/07 13:20:22;;;;;;;11.40;6.70;;;;;;;;;;5027715;28;20022;-53
2024/02/07 13:22:48;;;;;;;11.50;6.70;;;;;;;;;;5027059;28;20026;-57
2024/02/07 13:25:14;;;;;;;12.10;7.20;;;;;;;;;;5029513;28;20018;-54
2024/02/07 13:27:42;;;;;;;13.20;7.70;;;;;;;;;;5029005;28;20383;-53
2024/02/07 13:30:09;;;;;;;12.98;7.65;;;;;;;;;;5027651;28;20026;-55
2024/02/07 13:32:35;;;;;;;13.38;8.02;;;;;;;;;;5028547;28;20538;-53
2024/02/07 13:35:02;;;;;;;13.07;7.70;;;;;;;;;;5029061;28;20388;-55
2024/02/07 13:37:28;;;;;;;12.80;7.43;;;;;;;;;;5029194;28;20047;-56
2024/02/07 13:39:55;;;;;;;12.80;7.50;;;;;;;;;;5027417;28;20544;-56
2024/02/07 13:42:21;;;;;;;13.10;7.60;;;;;;;;;;5028486;28;20435;-54
2024/02/07 13:44:47;;;;;;;13.30;8.07;;;;;;;;;;5028763;28;20036;-52
2024/02/07 13:47:13;;;;;;;13.52;8.55;;;;;;;;;;5028752;28;20030;-54
2024/02/07 13:49:39;;;;;;;13.57;8.68;;;;;;;;;;5028132;28;20029;-52
2024/02/07 13:52:06;;;;;;;13.65;8.90;;;;;;;;;;5027928;28;20021;-58
2024/02/07 13:54:33;;;;;;;13.77;9.15;;;;;;;;;;5028614;28;20052;-58
2024/02/07 13:56:59;;;;;;;13.80;9.18;;;;;;;;;;5028695;28;20018;-54
2024/02/07 13:59:25;;;;;;;13.75;9.05;;;;;;;;;;5028362;28;20025;-56
2024/02/07 14:01:51;;;;;;;13.70;9.10;;;;;;;;;;5028273;28;20033;-53
2024/02/07 14:04:17;;;;;;;13.77;9.13;;;;;;;;;;5028429;28;20067;-55
2024/02/07 14:06:43;;;;;;;13.63;8.68;;;;;;;;;;5028302;28;20049;-56
2024/02/07 14:09:09;;;;;;;13.85;9.30;;;;;;;;;;5028397;28;20033;-58
2024/02/07 14:11:41;;;;;;;13.68;8.85;;;;;;;;;;5028502;28;20036;-57
2024/02/07 14:14:07;;;;;;;13.68;8.90;;;;;;;;;;5028765;28;20499;-56
2024/02/07 14:16:33;;;;;;;13.60;8.70;;;;;;;;;;5028733;28;20072;-55
2024/02/07 14:18:59;;;;;;;13.52;8.50;;;;;;;;;;5029757;28;20380;-53
2024/02/07 14:21:25;;;;;;;13.52;8.30;;;;;;;;;;5028323;28;20029;-55
2024/02/07 14:23:51;;;;;;;13.38;7.90;;;;;;;;;;5031105;28;20091;-53
2024/02/07 14:26:17;;;;;;;13.15;7.70;;;;;;;;;;5032379;28;20033;-55
2024/02/07 14:28:43;;;;;;;13.25;7.90;;;;;;;;;;5032650;28;20025;-52
2024/02/07 14:31:09;;;;;;;13.23;7.90;;;;;;;;;;5032551;28;20433;-54
2024/02/07 14:33:35;;;;;;;13.32;7.90;;;;;;;;;;5032163;28;20069;-55
2024/02/07 14:36:01;;;;;;;13.38;8.10;;;;;;;;;;5032360;28;20191;-56
2024/02/07 14:38:28;;;;;;;13.20;7.78;;;;;;;;;;5032211;28;20017;-55
2024/02/07 14:40:55;;;;;;;13.27;7.80;;;;;;;;;;5032111;28;20033;-56
2024/02/07 14:43:21;;;;;;;13.05;7.65;;;;;;;;;;5032211;28;20029;-56
2024/02/07 14:45:48;;;;;;;13.27;8.00;;;;;;;;;;5032336;28;20515;-52
2024/02/07 14:48:14;;;;;;;13.07;7.68;;;;;;;;;;5032268;28;20507;-55
2024/02/07 14:50:40;;;;;;;13.13;7.63;;;;;;;;;;5032436;28;20021;-56
2024/02/07 14:53:06;;;;;;;14.23;7.78;;;;;;;;;;5031915;28;20037;-55
2024/02/07 14:55:32;;;;;;;12.98;7.60;;;;;;;;;;5032016;28;20116;-54
2024/02/07 14:57:58;;;;;;;13.27;7.88;;;;;;;;;;5031662;28;20048;-57
2024/02/07 15:00:24;;;;;;;13.02;7.57;;;;;;;;;;5031993;28;20025;-62
2024/02/07 15:02:50;;;;;;;12.70;7.40;;;;;;;;;;5031899;28;20033;-57
2024/02/07 15:05:16;;;;;;;12.15;7.10;;;;;;;;;;5032042;28;20017;-57
2024/02/07 15:07:46;;;;;;;12.93;7.53;;;;;;;;;;5031703;28;20033;-58
2024/02/07 15:10:12;;;;;;;11.98;7.00;;;;;;;;;;5032027;28;20026;-56
2024/02/07 15:12:38;;;;;;;11.93;6.97;;;;;;;;;;5029494;28;20025;-54
2024/02/07 15:15:06;;;;;;;12.05;7.03;;;;;;;;;;5031652;28;20233;-56
2024/02/07 15:17:32;;;;;;;12.65;7.35;;;;;;;;;;5031472;28;20028;-57
2024/02/07 15:19:58;;;;;;;12.50;7.30;;;;;;;;;;5031900;28;20025;-55
2024/02/07 15:22:24;;;;;;;12.30;7.10;;;;;;;;;;5030795;28;20049;-51